Airport View

Enter AWOS ICAO identifier for current METAR.

ex. KFNL

KAEJ 191905Z AUTO 30014G24KT 10SM SCT095 20/M04 A3013 RMK AO2 T01991037

19 Jun 2019 19:07

Frequency: 132.925

Phone: 719-395-2599

Other Area AWOS: K7BM - KANK - KMYP - KLXV

TAF KASE 191732Z 1918/2018 01008G19KT P6SM FEW080 SCT200 FM191900 30010G20KT P6SM FEW080 SCT200 FM200100 27006KT P6SM FEW080 SCT200 FM200300 20006KT P6SM FEW080 FEW200